Time;durP1;ratioP1;P1;durP2;ratioP2;P2;SDS_P1;SDS_P2;PMS_P1;PMS_P2;Temp;Humidity;BMP_temperature;BMP_pressure;BME280_temperature;BME280_humidity;BME280_pressure;Samples;Min_cycle;Max_cycle;Signal;HPM_P1;HPM_P2
2022/01/20 00:00:21;;;;;;;28.83;13.98;;;;;;;0.15;72.80;98312.56;5111282;28;20015;-74
2022/01/20 00:02:59;;;;;;;26.25;12.30;;;;;;;0.13;72.61;98301.19;5111234;28;20058;-75
2022/01/20 00:27:33;;;;;;;28.17;12.73;;;;;;;0.32;72.56;98287.56;5109439;28;20400;-75
2022/01/20 00:32:55;;;;;;;38.10;17.38;;;;;;;0.35;72.72;98289.81;5109591;28;20268;-75
2022/01/20 00:35:29;;;;;;;27.80;13.95;;;;;;;0.38;72.56;98290.19;5114416;28;20028;-75
2022/01/20 00:37:54;;;;;;;34.22;14.40;;;;;;;0.39;72.86;98291.81;5110718;28;20027;-75
2022/01/20 00:40:21;;;;;;;29.33;13.95;;;;;;;0.40;72.53;98290.78;5092489;28;20506;-76
2022/01/20 00:42:46;;;;;;;42.10;17.73;;;;;;;0.42;72.42;98275.13;5111278;28;20020;-76
2022/01/20 00:45:12;;;;;;;44.33;18.17;;;;;;;0.44;72.67;98267.63;5110729;28;20068;-75
2022/01/20 00:47:39;;;;;;;27.52;13.18;;;;;;;0.44;72.40;98254.16;5092545;28;20063;-75
2022/01/20 00:50:08;;;;;;;50.25;18.85;;;;;;;0.46;72.44;98263.88;5110938;28;20106;-76
2022/01/20 00:52:33;;;;;;;31.67;14.68;;;;;;;0.45;72.42;98254.97;5110524;28;20368;-76
2022/01/20 00:54:59;;;;;;;51.80;22.20;;;;;;;0.48;72.63;98254.50;5110546;28;20038;-74
2022/01/20 00:57:24;;;;;;;40.60;16.67;;;;;;;0.51;72.17;98245.94;5110920;28;20434;-77
2022/01/20 00:59:49;;;;;;;33.60;15.13;;;;;;;0.53;72.73;98243.00;5110626;28;20107;-75
2022/01/20 01:02:15;;;;;;;41.72;18.63;;;;;;;0.55;72.58;98235.50;5110103;28;20023;-75
2022/01/20 01:04:41;;;;;;;32.75;15.35;;;;;;;0.54;72.75;98231.97;5110107;28;20019;-75
2022/01/20 01:09:38;;;;;;;25.42;13.40;;;;;;;0.53;72.74;98240.31;5110566;28;20487;-76
2022/01/20 01:12:07;;;;;;;28.98;13.85;;;;;;;0.52;72.69;98233.25;5091657;28;20045;-75
2022/01/20 01:14:34;;;;;;;26.73;13.15;;;;;;;0.52;72.77;98234.09;5110192;28;20031;-75
2022/01/20 01:24:39;;;;;;;34.38;14.85;;;;;;;0.55;72.73;98193.16;5110099;28;20031;-74
2022/01/20 01:27:05;;;;;;;31.67;14.32;;;;;;;0.55;72.49;98195.84;5110434;28;20372;-75
2022/01/20 01:35:05;;;;;;;26.23;13.07;;;;;;;0.58;72.75;98172.94;5026732;28;20040;-76
2022/01/20 01:40:07;;;;;;;28.70;13.10;;;;;;;0.63;72.57;98178.44;5109768;28;20092;-73
2022/01/20 01:42:43;;;;;;;26.65;13.65;;;;;;;0.67;72.75;98184.19;5110442;28;20055;-75
2022/01/20 01:45:17;;;;;;;22.85;11.68;;;;;;;0.70;72.63;98164.81;5094366;28;20052;-73
2022/01/20 01:47:44;;;;;;;23.48;11.90;;;;;;;0.72;72.30;98168.94;5114262;28;20028;-73
2022/01/20 01:50:10;;;;;;;18.73;10.35;;;;;;;0.74;72.36;98168.69;5095482;28;20432;-74
2022/01/20 01:52:36;;;;;;;24.63;12.75;;;;;;;0.79;71.62;98152.59;5112475;28;20039;-73
2022/01/20 01:55:01;;;;;;;23.25;12.07;;;;;;;0.80;72.14;98148.81;5113761;28;20066;-74
2022/01/20 01:57:28;;;;;;;20.63;10.95;;;;;;;0.81;71.59;98147.78;5114348;28;20077;-75
2022/01/20 01:59:54;;;;;;;20.70;10.63;;;;;;;0.82;71.77;98145.88;5114260;28;20016;-73
2022/01/20 02:02:20;;;;;;;18.10;9.77;;;;;;;0.85;72.03;98145.41;5114052;28;20552;-74
2022/01/20 02:04:46;;;;;;;20.73;10.13;;;;;;;0.85;71.60;98138.13;5113947;28;20023;-75
2022/01/20 02:20:37;;;;;;;16.27;9.85;;;;;;;0.93;71.13;98122.63;5113584;28;20753;-74
2022/01/20 02:23:02;;;;;;;17.35;9.82;;;;;;;0.92;70.89;98121.78;5094971;28;20030;-74
2022/01/20 02:25:31;;;;;;;15.98;9.48;;;;;;;0.94;70.50;98126.94;5113294;28;20030;-74
2022/01/20 02:27:58;;;;;;;18.85;8.60;;;;;;;0.96;71.15;98130.22;5113439;28;20027;-74
2022/01/20 02:30:26;;;;;;;17.48;9.05;;;;;;;0.98;71.27;98128.91;5113443;28;20020;-74
2022/01/20 02:33:06;;;;;;;16.98;8.55;;;;;;;0.99;70.72;98129.75;5113471;28;20011;-74
2022/01/20 02:35:35;;;;;;;14.80;8.45;;;;;;;1.01;70.44;98127.63;5110797;28;20536;-73
2022/01/20 02:38:09;;;;;;;14.45;7.88;;;;;;;1.03;70.54;98120.06;5113105;28;20019;-74
2022/01/20 02:45:47;;;;;;;17.90;8.65;;;;;;;1.04;71.07;98114.44;5112519;28;20431;-74
2022/01/20 02:48:14;;;;;;;14.88;7.93;;;;;;;1.04;70.64;98114.44;5113048;28;20098;-74
2022/01/20 02:50:39;;;;;;;14.20;8.05;;;;;;;1.06;71.33;98116.09;5113087;28;20035;-74
2022/01/20 02:53:05;;;;;;;16.15;8.38;;;;;;;1.04;71.16;98119.84;5094681;28;20032;-75
2022/01/20 02:55:30;;;;;;;18.13;9.35;;;;;;;1.03;70.98;98114.69;5093565;28;20031;-74
2022/01/20 02:57:55;;;;;;;17.65;8.60;;;;;;;1.04;71.21;98119.00;5112689;28;20024;-75
2022/01/20 03:00:21;;;;;;;13.27;7.60;;;;;;;1.07;70.99;98112.31;5112993;28;20467;-75
2022/01/20 03:02:48;;;;;;;11.80;7.28;;;;;;;1.06;71.63;98108.78;5128199;27;20039;-74
2022/01/20 03:05:13;;;;;;;13.43;7.95;;;;;;;1.08;70.89;98109.38;5112857;28;20018;-75
2022/01/20 03:07:39;;;;;;;14.20;7.78;;;;;;;1.12;71.28;98107.03;5112795;28;20032;-75
2022/01/20 03:10:07;;;;;;;13.85;7.90;;;;;;;1.13;71.35;98097.84;5112513;28;20015;-74
2022/01/20 03:12:33;;;;;;;12.88;6.55;;;;;;;1.12;70.77;98098.91;5092168;28;20503;-74
2022/01/20 03:14:58;;;;;;;12.85;7.20;;;;;;;1.10;71.11;98101.03;5112684;28;20138;-74
2022/01/20 03:17:24;;;;;;;12.77;8.10;;;;;;;1.09;71.47;98096.69;5093966;28;20122;-74
2022/01/20 03:19:49;;;;;;;13.95;8.05;;;;;;;1.05;72.09;98093.66;5112345;28;20032;-74
2022/01/20 03:22:15;;;;;;;15.00;8.30;;;;;;;1.02;71.85;98094.97;5112375;28;20534;-75
2022/01/20 03:24:40;;;;;;;45.20;16.20;;;;;;;1.01;72.56;98098.72;5093036;28;20024;-74
2022/01/20 03:27:06;;;;;;;20.08;9.52;;;;;;;0.96;72.94;98101.34;5111795;28;20030;-74
2022/01/20 03:29:31;;;;;;;20.80;12.40;;;;;;;0.94;73.20;98091.84;5112195;28;20028;-75
2022/01/20 03:31:57;;;;;;;28.38;14.70;;;;;;;0.89;73.28;98095.25;5111708;28;20035;-74
2022/01/20 03:34:22;;;;;;;35.10;17.95;;;;;;;0.85;73.30;98086.00;5111949;28;20659;-74
2022/01/20 03:36:49;;;;;;;48.67;23.90;;;;;;;0.82;74.29;98081.91;5093321;28;20031;-74
2022/01/20 03:39:14;;;;;;;22.08;12.98;;;;;;;0.78;74.56;98079.94;5112141;28;20083;-74
2022/01/20 03:41:40;;;;;;;33.13;18.80;;;;;;;0.70;75.06;98081.97;5111487;28;20052;-74
2022/01/20 03:44:05;;;;;;;74.20;26.52;;;;;;;0.68;75.09;98070.59;5111519;28;20149;-74
2022/01/20 03:46:31;;;;;;;45.90;17.80;;;;;;;0.68;75.67;98067.06;5111843;28;20458;-74
2022/01/20 03:49:07;;;;;;;66.97;21.38;;;;;;;0.67;75.70;98071.66;5111748;28;20031;-73
2022/01/20 03:51:33;;;;;;;48.28;19.58;;;;;;;0.69;75.36;98074.09;5111072;28;20388;-74
2022/01/20 03:53:58;;;;;;;34.65;13.65;;;;;;;0.66;75.40;98078.13;5111506;28;20031;-74
2022/01/20 03:56:24;;;;;;;111.85;32.97;;;;;;;0.66;75.29;98072.72;5111458;28;20464;-73
2022/01/20 03:58:50;;;;;;;109.03;31.80;;;;;;;0.69;75.39;98061.44;5111248;28;20028;-74
2022/01/20 04:01:16;;;;;;;25.73;11.25;;;;;;;0.70;75.86;98067.63;5092812;28;20050;-74
2022/01/20 04:03:42;;;;;;;73.40;24.60;;;;;;;0.71;75.50;98059.31;5111442;28;20036;-74
2022/01/20 04:06:07;;;;;;;86.53;27.38;;;;;;;0.71;75.60;98058.47;5092003;28;20020;-74
2022/01/20 04:08:36;;;;;;;55.47;20.85;;;;;;;0.69;76.10;98055.22;5111694;28;20095;-75
2022/01/20 04:11:06;;;;;;;83.35;29.30;;;;;;;0.62;76.20;98046.44;5111423;28;20023;-73
2022/01/20 04:13:32;;;;;;;;;;;;;;;0.58;76.65;98044.25;5110524;28;20586;-74
2022/01/20 04:16:11;;;;;;;23.20;11.80;;;;;;;0.53;77.23;98049.53;5111172;28;19912;-74
2022/01/20 04:18:37;;;;;;;26.83;12.20;;;;;;;0.47;77.86;98036.19;5110499;28;20020;-73
2022/01/20 04:21:02;;;;;;;48.83;22.70;;;;;;;0.46;77.72;98037.22;5111116;28;20026;-73
2022/01/20 04:23:30;;;;;;;35.25;17.67;;;;;;;0.44;77.46;98032.91;5111201;28;20032;-73
2022/01/20 04:25:56;;;;;;;23.60;11.77;;;;;;;0.47;77.61;98033.47;5110535;28;20629;-73
2022/01/20 04:28:22;;;;;;;21.23;12.80;;;;;;;0.47;77.91;98026.22;5111055;28;20410;-73
2022/01/20 04:30:47;;;;;;;23.58;12.23;;;;;;;0.49;77.58;98032.19;5110795;28;20026;-73
2022/01/20 04:33:13;;;;;;;22.42;11.43;;;;;;;0.51;77.34;98032.78;5092020;28;20475;-73
2022/01/20 04:35:39;;;;;;;20.00;10.65;;;;;;;0.54;76.89;98035.00;5110935;28;20023;-73
2022/01/20 04:38:05;;;;;;;17.23;10.05;;;;;;;0.54;77.63;98036.84;5110707;28;20019;-73
2022/01/20 04:40:37;;;;;;;19.98;10.35;;;;;;;0.55;77.31;98033.09;5092225;28;20581;-73
2022/01/20 04:43:03;;;;;;;19.10;10.25;;;;;;;0.55;76.51;98023.13;5092542;28;20084;-72
2022/01/20 04:45:33;;;;;;;17.73;10.20;;;;;;;0.57;76.87;98023.72;5110769;28;20659;-74
2022/01/20 04:48:47;;;;;;;17.15;9.63;;;;;;;0.60;77.05;98014.31;5110432;28;20043;-73
2022/01/20 04:58:59;;;;;;;16.92;9.13;;;;;;;0.71;76.26;98015.28;5109510;28;20047;-72
2022/01/20 05:01:25;;;;;;;17.30;8.77;;;;;;;0.73;76.20;98002.38;5092108;28;20024;-73
2022/01/20 05:03:50;;;;;;;19.95;9.20;;;;;;;0.74;76.02;98012.13;5109664;28;20031;-73
2022/01/20 05:06:16;;;;;;;29.98;13.70;;;;;;;0.78;75.93;98009.75;5110843;28;20080;-74
2022/01/20 05:08:41;;;;;;;19.40;10.52;;;;;;;0.80;75.93;98016.53;5111008;28;20121;-74
2022/01/20 05:11:09;;;;;;;20.92;10.60;;;;;;;0.80;76.09;98013.84;5092856;28;20033;-73
2022/01/20 05:13:37;;;;;;;22.13;11.13;;;;;;;0.80;75.98;98007.66;5111562;28;20030;-74
2022/01/20 05:16:03;;;;;;;18.58;9.70;;;;;;;0.80;75.42;98016.53;5110726;28;20031;-74
2022/01/20 05:18:29;;;;;;;19.90;10.07;;;;;;;0.83;75.59;98010.66;5086749;28;20030;-74
2022/01/20 05:20:56;;;;;;;20.30;10.57;;;;;;;0.84;75.65;98006.06;5110699;28;20048;-76
2022/01/20 05:23:21;;;;;;;18.17;9.00;;;;;;;0.86;75.34;98002.06;5110763;28;20024;-73
2022/01/20 05:25:47;;;;;;;20.88;9.48;;;;;;;0.86;75.56;98002.06;5109991;28;20035;-73
2022/01/20 05:28:12;;;;;;;17.83;8.80;;;;;;;0.91;75.66;98003.22;5110146;28;20110;-73
2022/01/20 05:30:40;;;;;;;16.88;9.25;;;;;;;0.94;75.26;97998.16;5110806;28;20133;-74
2022/01/20 05:33:06;;;;;;;17.63;8.18;;;;;;;0.98;75.50;97988.50;5110706;28;20498;-74
2022/01/20 05:35:31;;;;;;;15.05;7.53;;;;;;;1.04;75.54;97995.63;5110220;28;20028;-73
2022/01/20 05:37:57;;;;;;;12.25;6.95;;;;;;;1.11;75.80;97990.03;5110465;28;20020;-74
2022/01/20 05:40:24;;;;;;;11.90;6.40;;;;;;;1.20;75.47;97987.75;5110513;28;20044;-74
2022/01/20 05:42:49;;;;;;;8.48;5.10;;;;;;;1.25;75.29;97979.72;5092068;28;20027;-74
2022/01/20 05:45:15;;;;;;;8.43;4.65;;;;;;;1.32;75.14;97988.47;5091452;28;20070;-75
2022/01/20 05:47:46;;;;;;;8.20;4.60;;;;;;;1.38;75.10;97996.66;5090932;28;20024;-72
2022/01/20 05:50:15;;;;;;;12.05;5.82;;;;;;;1.43;74.53;97991.34;5110295;28;20032;-70
2022/01/20 05:52:43;;;;;;;8.00;4.95;;;;;;;1.46;74.60;97988.13;5110416;28;20019;-73
2022/01/20 05:55:20;;;;;;;10.43;5.10;;;;;;;1.48;73.98;97976.00;5105154;28;20027;-72
2022/01/20 05:57:46;;;;;;;11.43;4.95;;;;;;;1.47;73.67;97987.06;5108735;28;20059;-72
2022/01/20 06:00:23;;;;;;;7.80;4.60;;;;;;;1.49;73.96;97971.44;5090932;28;20024;-73
2022/01/20 06:05:34;;;;;;;8.20;4.78;;;;;;;1.53;74.17;97980.69;5107288;28;20407;-71
2022/01/20 06:08:00;;;;;;;8.38;4.97;;;;;;;1.54;74.27;97971.50;5107940;27;20019;-70
2022/01/20 06:10:26;;;;;;;10.23;4.53;;;;;;;1.55;73.64;97973.13;5108389;28;20035;-75
2022/01/20 06:12:51;;;;;;;13.57;5.80;;;;;;;1.56;73.49;97972.06;5108900;28;20031;-71
2022/01/20 06:15:17;;;;;;;15.25;6.70;;;;;;;1.56;73.48;97980.19;5090701;28;20475;-72
2022/01/20 06:17:42;;;;;;;15.23;6.63;;;;;;;1.57;73.82;97978.28;5110170;28;20020;-71
2022/01/20 06:20:09;;;;;;;15.05;6.80;;;;;;;1.56;73.76;97980.19;5106929;28;20499;-69
2022/01/20 06:22:36;;;;;;;16.25;7.32;;;;;;;1.58;73.31;97978.03;5109977;28;20095;-69
2022/01/20 06:25:03;;;;;;;14.93;6.78;;;;;;;1.56;73.39;97988.28;5109702;28;20028;-75
2022/01/20 06:27:29;;;;;;;12.35;6.75;;;;;;;1.57;73.19;97983.69;5109083;28;20067;-70
2022/01/20 06:29:55;;;;;;;11.77;6.13;;;;;;;1.56;73.24;97985.59;5112508;27;20548;-70
2022/01/20 06:32:20;;;;;;;12.32;6.22;;;;;;;1.54;73.60;97976.91;5111897;28;20055;-70
2022/01/20 06:34:46;;;;;;;11.85;6.28;;;;;;;1.55;73.57;97977.72;5112714;28;20027;-69
2022/01/20 06:37:12;;;;;;;13.90;5.85;;;;;;;1.55;73.85;97970.44;5106971;27;20015;-69
2022/01/20 06:39:37;;;;;;;11.23;5.70;;;;;;;1.56;73.73;97974.78;5112373;28;20030;-72
2022/01/20 06:42:03;;;;;;;10.40;5.18;;;;;;;1.55;74.29;97965.03;5113256;28;20089;-70
2022/01/20 06:44:28;;;;;;;13.52;5.57;;;;;;;1.59;73.88;97958.06;5107518;28;20519;-69
2022/01/20 06:46:54;;;;;;;13.68;6.80;;;;;;;1.59;74.36;97955.34;5112974;28;20089;-71
2022/01/20 06:49:19;;;;;;;11.50;5.60;;;;;;;1.62;73.81;97956.72;5091588;28;20069;-71
2022/01/20 06:51:45;;;;;;;11.40;5.05;;;;;;;1.63;74.02;97969.19;5094855;28;20024;-70
2022/01/20 06:54:11;;;;;;;11.93;5.82;;;;;;;1.65;74.36;97969.75;5113990;27;20375;-69
2022/01/20 06:56:38;;;;;;;11.95;5.50;;;;;;;1.64;74.79;97965.41;5091686;28;20386;-69
2022/01/20 06:59:04;;;;;;;10.95;5.47;;;;;;;1.66;74.24;97971.38;5110342;28;20106;-71
2022/01/20 07:01:29;;;;;;;14.48;6.18;;;;;;;1.66;74.55;97990.31;5109951;28;20039;-71
2022/01/20 07:03:55;;;;;;;23.48;7.75;;;;;;;1.66;74.42;98003.00;5109546;28;20114;-71
2022/01/20 07:06:20;;;;;;;19.02;8.48;;;;;;;1.68;74.88;98009.81;5109364;28;20069;-69
2022/01/20 07:08:46;;;;;;;16.25;8.00;;;;;;;1.69;75.03;98016.84;5091349;28;20455;-72
2022/01/20 07:11:11;;;;;;;7.97;5.38;;;;;;;1.67;75.36;98028.94;5110076;28;20024;-70
2022/01/20 07:13:37;;;;;;;8.10;4.28;;;;;;;1.53;75.12;98047.41;5112643;27;20027;-71
2022/01/20 07:16:03;;;;;;;21.42;8.82;;;;;;;1.38;76.52;98018.28;5110302;27;20112;-71
2022/01/20 07:18:28;;;;;;;6.63;3.42;;;;;;;1.27;75.80;98012.72;5111797;27;20031;-68
2022/01/20 07:20:53;;;;;;;10.57;4.75;;;;;;;1.19;75.34;98016.66;5109839;28;20035;-69
2022/01/20 07:23:19;;;;;;;18.77;7.55;;;;;;;1.17;75.75;98013.38;5112524;28;20066;-69
2022/01/20 07:25:44;;;;;;;31.15;11.07;;;;;;;1.14;75.58;98002.25;5091723;28;20030;-70
2022/01/20 07:28:10;;;;;;;8.73;4.80;;;;;;;1.18;75.83;98019.59;5110556;28;20072;-69
2022/01/20 07:30:36;;;;;;;11.40;5.80;;;;;;;1.17;76.09;98018.78;5109880;28;20055;-69
2022/01/20 07:33:03;;;;;;;10.20;5.10;;;;;;;1.18;75.82;98015.00;5111564;28;20085;-71
2022/01/20 07:35:29;;;;;;;16.75;6.93;;;;;;;1.15;76.20;98006.59;5114532;27;20023;-70
2022/01/20 07:37:55;;;;;;;15.93;8.07;;;;;;;1.14;76.17;98003.06;5114572;28;20020;-69
2022/01/20 07:40:21;;;;;;;25.95;10.77;;;;;;;1.16;76.41;98000.94;5110427;28;20036;-69
2022/01/20 07:42:46;;;;;;;34.42;13.30;;;;;;;1.14;76.38;98003.06;5113139;28;20134;-69
2022/01/20 07:45:12;;;;;;;21.40;8.50;;;;;;;1.10;75.86;98014.59;5092095;28;20020;-74
2022/01/20 07:47:38;;;;;;;17.20;8.50;;;;;;;1.04;76.41;98005.59;5111596;28;20023;-71
2022/01/20 07:50:04;;;;;;;26.35;10.60;;;;;;;0.99;76.39;98017.13;5112707;28;20026;-74
2022/01/20 07:52:29;;;;;;;22.75;9.38;;;;;;;0.98;76.50;98020.09;5111876;28;20055;-73
2022/01/20 07:54:55;;;;;;;22.30;10.93;;;;;;;0.92;76.40;98019.16;5091481;28;20067;-71
2022/01/20 07:57:20;;;;;;;19.75;9.30;;;;;;;0.87;76.83;98029.88;5111437;28;20118;-71
2022/01/20 07:59:46;;;;;;;21.98;9.32;;;;;;;0.85;76.72;98032.00;5112128;28;20035;-72
2022/01/20 08:02:11;;;;;;;25.58;11.25;;;;;;;0.82;77.39;98027.91;5111723;28;20028;-71
2022/01/20 08:04:37;;;;;;;21.70;10.07;;;;;;;0.82;77.10;98029.78;5112320;27;20546;-72
2022/01/20 08:07:02;;;;;;;46.78;21.45;;;;;;;0.81;77.42;98026.28;5111956;28;20039;-74
2022/01/20 08:09:28;;;;;;;18.38;9.45;;;;;;;0.83;76.92;98037.66;5111259;28;20024;-74
2022/01/20 08:11:53;;;;;;;20.67;9.57;;;;;;;0.85;77.27;98022.03;5111645;28;20022;-74
2022/01/20 08:14:19;;;;;;;14.38;6.85;;;;;;;0.86;76.86;98004.78;5111441;28;20047;-73
2022/01/20 08:16:44;;;;;;;16.02;6.45;;;;;;;0.90;77.00;98007.78;5112000;27;20034;-73
2022/01/20 08:19:10;;;;;;;12.77;5.75;;;;;;;0.97;76.81;98013.06;5107545;28;20027;-73
2022/01/20 08:21:35;;;;;;;16.98;6.35;;;;;;;1.02;76.72;98013.13;5117072;27;20031;-72
2022/01/20 08:24:00;;;;;;;11.90;5.28;;;;;;;1.03;76.20;98009.34;5111891;27;20396;-79
2022/01/20 08:26:26;;;;;;;12.80;5.85;;;;;;;1.09;75.79;98002.16;5093975;28;20028;-78
2022/01/20 08:28:51;;;;;;;15.13;6.82;;;;;;;1.16;76.10;97998.22;5091657;28;20038;-78
2022/01/20 08:31:17;;;;;;;15.68;6.90;;;;;;;1.19;75.94;97989.63;5090846;28;20476;-76
2022/01/20 08:33:42;;;;;;;16.40;6.32;;;;;;;1.24;75.94;97985.38;5108310;27;20039;-73
2022/01/20 08:36:08;;;;;;;15.85;6.22;;;;;;;1.27;75.54;97984.88;5111493;28;20386;-71
2022/01/20 08:38:33;;;;;;;17.33;6.50;;;;;;;1.32;75.31;97987.66;5111350;27;20034;-73
2022/01/20 08:40:58;;;;;;;12.05;5.35;;;;;;;1.36;75.04;97972.59;5111351;27;20096;-71
2022/01/20 08:43:24;;;;;;;12.75;6.15;;;;;;;1.42;74.69;97962.66;5110580;28;20027;-71
2022/01/20 08:45:50;;;;;;;10.48;5.93;;;;;;;1.45;74.32;97948.66;5109057;28;20015;-72
2022/01/20 08:48:15;;;;;;;14.63;5.68;;;;;;;1.49;74.88;97955.22;5114150;27;20390;-75
2022/01/20 08:50:43;;;;;;;14.00;5.78;;;;;;;1.53;74.65;97944.72;5113915;27;20118;-75
2022/01/20 08:53:09;;;;;;;11.70;5.63;;;;;;;1.59;74.57;97939.13;5110573;28;20035;-76
2022/01/20 08:55:35;;;;;;;13.52;6.43;;;;;;;1.62;74.26;97944.03;5111228;28;20023;-73
2022/01/20 08:58:01;;;;;;;12.20;5.70;;;;;;;1.68;74.85;97938.69;5110943;27;20028;-76
2022/01/20 09:00:29;;;;;;;13.52;6.28;;;;;;;1.73;73.98;97949.56;5110702;28;20020;-71
2022/01/20 09:02:55;;;;;;;12.27;5.88;;;;;;;1.80;74.06;97944.78;5110637;28;20019;-75
2022/01/20 09:05:21;;;;;;;14.02;5.82;;;;;;;1.84;74.25;97935.09;5110989;28;20020;-73
2022/01/20 09:07:46;;;;;;;12.93;6.78;;;;;;;1.91;74.48;97924.09;5109505;28;20538;-72
2022/01/20 09:10:19;;;;;;;13.85;6.18;;;;;;;1.92;73.67;97921.16;5109373;28;20114;-72
2022/01/20 09:15:28;;;;;;;10.65;5.15;;;;;;;2.03;73.35;97924.78;5109276;28;20032;-79
2022/01/20 09:18:02;;;;;;;11.15;5.72;;;;;;;2.11;73.61;97914.56;5103391;28;20028;-79
2022/01/20 09:20:28;;;;;;;13.18;6.15;;;;;;;2.21;73.19;97920.09;5107152;28;20118;-75
2022/01/20 09:22:55;;;;;;;13.82;6.15;;;;;;;2.31;72.59;97922.88;5107348;28;20446;-72
2022/01/20 09:25:21;;;;;;;12.70;5.90;;;;;;;2.44;72.91;97913.56;5108448;28;20513;-75
2022/01/20 09:27:47;;;;;;;17.42;6.95;;;;;;;2.57;71.92;97912.31;5108942;28;20499;-71
2022/01/20 09:30:18;;;;;;;14.80;6.43;;;;;;;2.71;71.56;97909.16;5110715;28;20032;-75
2022/01/20 09:32:46;;;;;;;13.20;5.93;;;;;;;2.78;69.09;97898.94;5095964;28;20605;-76
2022/01/20 09:35:12;;;;;;;10.68;4.90;;;;;;;2.83;68.95;97899.81;5108959;28;20032;-71
2022/01/20 09:37:39;;;;;;;11.48;4.55;;;;;;;2.80;67.23;97889.50;5109101;28;20057;-71
2022/01/20 09:40:07;;;;;;;16.08;5.55;;;;;;;2.75;67.03;97889.44;5088888;28;20503;-72
2022/01/20 09:42:33;;;;;;;13.57;5.53;;;;;;;2.71;65.42;97890.22;5109193;28;20046;-71
2022/01/20 09:44:59;;;;;;;12.95;4.43;;;;;;;2.64;64.92;97880.44;5109507;28;20031;-70
2022/01/20 09:47:24;;;;;;;11.35;3.50;;;;;;;2.50;62.93;97906.28;5109087;28;20447;-70
2022/01/20 09:49:50;;;;;;;9.18;2.55;;;;;;;2.45;63.43;97885.41;5109682;28;20054;-71
2022/01/20 09:52:15;;;;;;;11.68;3.25;;;;;;;2.38;63.64;97882.91;5108805;28;20032;-73
2022/01/20 09:54:41;;;;;;;9.95;3.20;;;;;;;2.34;63.77;97883.69;5091929;28;20089;-72
2022/01/20 09:57:06;;;;;;;11.02;3.70;;;;;;;2.28;62.62;97863.88;5109340;28;20523;-69
2022/01/20 09:59:32;;;;;;;8.55;2.80;;;;;;;2.23;63.14;97861.94;5090685;28;20039;-69
2022/01/20 10:01:58;;;;;;;11.50;3.22;;;;;;;2.17;62.17;97856.75;5111407;28;20036;-70
2022/01/20 10:04:29;;;;;;;10.05;3.03;;;;;;;2.14;61.32;97865.38;5108634;28;20023;-74
2022/01/20 10:07:00;;;;;;;10.00;3.88;;;;;;;2.10;61.72;97872.38;5112249;28;20042;-71
2022/01/20 10:09:49;;;;;;;11.15;3.33;;;;;;;2.07;62.51;97874.50;5112585;28;20032;-73
2022/01/20 10:12:18;;;;;;;14.40;5.07;;;;;;;2.04;61.50;97858.78;5113216;28;20035;-71
2022/01/20 10:14:49;;;;;;;7.65;3.10;;;;;;;2.04;61.70;97845.25;5110023;28;20844;-71
2022/01/20 10:17:24;;;;;;;9.18;2.95;;;;;;;2.05;61.82;97844.19;5110796;28;20372;-71
2022/01/20 10:20:00;;;;;;;11.65;4.20;;;;;;;2.04;62.11;97842.56;5095713;28;20396;-70
2022/01/20 10:22:27;;;;;;;10.80;3.22;;;;;;;2.04;61.52;97833.59;5094254;28;20081;-70
2022/01/20 10:25:03;;;;;;;9.38;3.05;;;;;;;2.07;60.57;97841.22;5112025;27;20028;-69
2022/01/20 10:27:34;;;;;;;11.20;4.07;;;;;;;2.05;61.77;97846.06;5114043;27;20034;-70
2022/01/20 10:30:11;;;;;;;12.38;3.10;;;;;;;2.04;59.76;97845.25;5096095;27;20118;-68
2022/01/20 10:32:48;;;;;;;13.98;4.20;;;;;;;2.05;61.02;97846.91;5115783;27;20032;-70
2022/01/20 10:35:16;;;;;;;12.15;3.80;;;;;;;2.05;60.84;97857.72;5112819;28;20040;-72
2022/01/20 10:37:59;;;;;;;11.02;2.83;;;;;;;2.00;60.27;97879.31;5112656;28;20042;-71
2022/01/20 10:40:26;;;;;;;10.20;4.15;;;;;;;1.99;61.17;97903.91;5113184;28;20094;-73
2022/01/20 10:42:51;;;;;;;12.85;3.63;;;;;;;1.99;61.90;97976.94;5113404;28;20035;-70
2022/01/20 10:45:29;;;;;;;4.43;1.90;;;;;;;1.27;69.56;97976.78;5113299;28;20417;-76
2022/01/20 10:48:00;;;;;;;3.15;2.00;;;;;;;0.23;73.46;97987.72;5093411;28;20444;-76
2022/01/20 10:50:31;;;;;;;4.55;1.90;;;;;;;-0.39;76.78;97976.50;5093766;28;20082;-75
2022/01/20 10:52:57;;;;;;;9.57;4.13;;;;;;;-0.76;78.09;97979.47;5113308;28;20015;-75
2022/01/20 10:55:24;;;;;;;11.80;4.65;;;;;;;-0.99;78.59;97978.41;5113294;28;20437;-71
2022/01/20 10:57:51;;;;;;;6.03;2.65;;;;;;;-1.16;79.62;97978.25;5112146;28;20031;-72
2022/01/20 11:00:20;;;;;;;10.82;4.22;;;;;;;-1.30;80.11;97969.59;5113393;28;20031;-70
2022/01/20 11:02:51;;;;;;;7.65;3.60;;;;;;;-1.41;80.57;97970.38;5112024;28;20031;-71
2022/01/20 11:05:17;;;;;;;7.78;3.33;;;;;;;-1.46;80.85;97978.34;5091233;28;20038;-71
2022/01/20 11:07:44;;;;;;;4.28;2.75;;;;;;;-1.53;81.38;97963.13;5112462;28;20119;-73
2022/01/20 11:10:11;;;;;;;10.35;6.03;;;;;;;-1.54;81.24;97961.47;5112379;28;20028;-70
2022/01/20 11:12:37;;;;;;;6.80;3.53;;;;;;;-1.58;80.19;97954.91;5112198;28;20399;-75
2022/01/20 11:15:06;;;;;;;7.25;3.45;;;;;;;-1.58;80.48;97952.22;5097328;28;20065;-72
2022/01/20 11:17:34;;;;;;;9.73;4.70;;;;;;;-1.56;80.12;97963.56;5094866;28;20032;-74
2022/01/20 11:20:21;;;;;;;10.38;4.13;;;;;;;-1.53;80.07;97967.66;5108714;28;20060;-71
2022/01/20 11:23:01;;;;;;;20.50;7.18;;;;;;;-1.52;80.12;97969.31;5110796;28;20035;-77
2022/01/20 11:25:34;;;;;;;27.42;11.63;;;;;;;-1.52;79.54;97975.50;5107437;28;20393;-74
2022/01/20 11:28:08;;;;;;;28.55;11.75;;;;;;;-1.51;79.23;97976.31;5092596;28;20063;-78
2022/01/20 11:30:38;;;;;;;21.67;9.52;;;;;;;-1.50;79.29;97959.97;5092915;28;20062;-73
2022/01/20 11:33:07;;;;;;;20.35;12.43;;;;;;;-1.46;79.07;97971.06;5109985;28;20028;-72
2022/01/20 11:35:36;;;;;;;10.05;5.25;;;;;;;-1.47;79.31;97955.97;5108651;28;20388;-75
2022/01/20 11:38:02;;;;;;;32.42;12.95;;;;;;;-1.45;79.09;97951.19;5092139;28;20115;-71
2022/01/20 11:40:27;;;;;;;18.00;4.28;;;;;;;-1.50;78.84;97959.13;5109980;28;20130;-71
2022/01/20 11:43:03;;;;;;;23.95;7.25;;;;;;;-1.50;78.96;97984.19;5111618;28;20036;-72
2022/01/20 11:45:32;;;;;;;28.13;7.50;;;;;;;-1.49;78.82;97955.41;5111793;28;20023;-72
2022/01/20 11:47:58;;;;;;;9.43;2.35;;;;;;;-1.50;78.73;97954.59;5111941;28;20053;-73
2022/01/20 11:50:24;;;;;;;14.63;5.40;;;;;;;-1.48;78.93;97958.91;5110135;28;20114;-69
2022/01/20 11:52:50;;;;;;;30.00;8.52;;;;;;;-1.46;79.01;97963.00;5112240;28;20115;-73
2022/01/20 11:55:17;;;;;;;19.77;5.07;;;;;;;-1.47;78.62;97952.50;5111448;28;20043;-70
2022/01/20 11:57:43;;;;;;;28.30;8.93;;;;;;;-1.43;78.49;97967.13;5110593;28;20039;-72
2022/01/20 12:00:24;;;;;;;10.25;2.72;;;;;;;-1.38;77.15;97959.16;5111895;28;20027;-71
2022/01/20 12:02:50;;;;;;;6.70;1.98;;;;;;;-1.40;76.37;97964.78;5111254;28;20023;-73
2022/01/20 12:05:31;;;;;;;8.57;2.72;;;;;;;-1.42;76.03;97961.50;5110688;28;20114;-73
2022/01/20 12:08:11;;;;;;;21.98;6.85;;;;;;;-1.41;76.10;97979.28;5091350;28;20090;-72
2022/01/20 12:10:38;;;;;;;6.93;2.30;;;;;;;-1.45;73.92;97985.34;5108974;27;20063;-72
2022/01/20 12:13:06;;;;;;;5.60;1.80;;;;;;;-1.51;73.48;97982.53;5114253;27;20118;-73
2022/01/20 12:15:31;;;;;;;18.90;6.57;;;;;;;-1.53;73.71;97978.41;5111473;28;20073;-74
2022/01/20 12:17:58;;;;;;;12.98;5.07;;;;;;;-1.56;73.98;97990.47;5110468;28;20058;-74
2022/01/20 12:20:24;;;;;;;10.02;2.72;;;;;;;-1.59;72.55;98007.06;5091687;28;20032;-73
2022/01/20 12:22:51;;;;;;;10.07;2.60;;;;;;;-1.66;71.68;97995.56;5107919;28;20476;-75
2022/01/20 12:25:19;;;;;;;19.48;4.85;;;;;;;-1.70;72.13;97997.91;5111118;28;20024;-76
2022/01/20 12:27:46;;;;;;;26.85;7.03;;;;;;;-1.78;71.69;98002.75;5108733;28;20058;-71
2022/01/20 12:30:23;;;;;;;72.50;19.23;;;;;;;-1.83;72.35;97998.88;5092420;28;20019;-75
2022/01/20 12:33:02;;;;;;;52.33;16.90;;;;;;;-1.90;71.21;97992.78;5110360;28;20016;-73
2022/01/20 12:36:02;;;;;;;12.15;4.43;;;;;;;-2.00;70.35;97979.06;5107948;28;20033;-83
2022/01/20 12:38:39;;;;;;;17.92;7.05;;;;;;;-2.06;70.63;97988.88;5090332;28;20115;-81
2022/01/20 12:41:08;;;;;;;13.95;3.15;;;;;;;-2.10;70.10;97983.09;5107492;28;20048;-80
2022/01/20 12:43:38;;;;;;;8.52;3.20;;;;;;;-2.12;70.35;97979.00;5089049;28;20043;-81
2022/01/20 12:46:04;;;;;;;8.95;2.70;;;;;;;-2.07;69.43;97983.69;5105089;28;20108;-81
2022/01/20 12:48:30;;;;;;;6.93;2.47;;;;;;;-2.05;69.43;97985.13;5089917;28;20058;-79